createdAt,value
2022-11-19T00:01:26.467Z,20.55
2022-11-19T00:03:54.004Z,18.63
2022-11-19T00:06:24.676Z,22.05
2022-11-19T00:08:52.049Z,21.25
2022-11-19T00:11:43.355Z,18.00
2022-11-19T00:14:13.379Z,19.05
2022-11-19T00:16:41.389Z,19.17
2022-11-19T00:19:10.315Z,21.15
2022-11-19T00:21:37.355Z,18.35
2022-11-19T00:24:04.691Z,20.00
2022-11-19T00:26:31.648Z,18.63
2022-11-19T00:28:58.782Z,18.27
2022-11-19T00:31:25.736Z,19.92
2022-11-19T00:33:54.568Z,16.92
2022-11-19T00:36:22.605Z,18.38
2022-11-19T00:38:49.563Z,17.92
2022-11-19T00:41:16.501Z,17.95
2022-11-19T00:43:52.506Z,18.30
2022-11-19T00:46:28.995Z,18.45
2022-11-19T00:48:59.276Z,18.35
2022-11-19T00:51:29.606Z,20.95
2022-11-19T00:53:57.424Z,20.45
2022-11-19T00:56:27.115Z,22.17
2022-11-19T00:58:54.771Z,21.00
2022-11-19T01:01:24.827Z,22.58
2022-11-19T01:03:52.735Z,23.65
2022-11-19T01:06:23.040Z,22.85
2022-11-19T01:08:51.602Z,25.05
2022-11-19T01:15:37.912Z,24.15
2022-11-19T01:21:12.260Z,23.42
2022-11-19T01:23:43.781Z,21.00
2022-11-19T01:26:12.340Z,26.17
2022-11-19T01:28:39.723Z,21.38
2022-11-19T01:31:10.903Z,24.58
2022-11-19T01:33:46.727Z,24.23
2022-11-19T01:38:54.428Z,24.00
2022-11-19T01:41:25.826Z,23.55
2022-11-19T01:43:59.315Z,26.33
2022-11-19T01:46:32.804Z,28.25
2022-11-19T01:49:20.155Z,28.35
2022-11-19T01:52:19.941Z,27.33
2022-11-19T01:55:06.827Z,27.90
2022-11-19T01:57:34.560Z,29.08
2022-11-19T02:00:01.627Z,31.30
2022-11-19T02:03:00.599Z,30.45
2022-11-19T02:05:54.512Z,35.88
2022-11-19T02:08:46.440Z,38.35
2022-11-19T02:11:44.441Z,30.35
2022-11-19T02:14:56.566Z,33.00
2022-11-19T02:17:55.555Z,31.38
2022-11-19T02:20:49.932Z,31.77
2022-11-19T02:23:59.392Z,29.75
2022-11-19T02:27:00.516Z,35.75
2022-11-19T02:46:54.140Z,32.60
2022-11-19T02:49:26.664Z,33.55
2022-11-19T02:58:40.975Z,30.13
2022-11-19T03:01:29.455Z,30.65
2022-11-19T03:04:31.357Z,32.17
2022-11-19T03:07:26.888Z,28.15
2022-11-19T03:10:03.898Z,28.60
2022-11-19T03:13:30.626Z,28.08
2022-11-19T03:16:25.868Z,34.03
2022-11-19T03:19:12.580Z,24.95
2022-11-19T03:21:56.894Z,31.13
2022-11-19T03:24:38.365Z,32.60
2022-11-19T03:27:13.539Z,29.45
2022-11-19T03:29:47.798Z,30.80
2022-11-19T04:00:31.777Z,27.48
2022-11-19T04:12:23.598Z,29.85
2022-11-19T04:16:57.709Z,31.42
2022-11-19T04:19:27.285Z,29.25
2022-11-19T04:22:26.423Z,29.42
2022-11-19T04:29:29.819Z,30.70
2022-11-19T06:00:11.857Z,26.75
2022-11-19T06:02:41.814Z,27.08
2022-11-19T06:08:06.725Z,31.88
2022-11-19T06:13:36.194Z,25.67
2022-11-19T06:16:03.562Z,27.80
2022-11-19T06:18:30.565Z,29.13
2022-11-19T06:20:57.460Z,28.90
2022-11-19T06:23:24.464Z,27.60
2022-11-19T06:25:54.792Z,35.10
2022-11-19T06:28:21.720Z,23.25
2022-11-19T06:30:48.666Z,25.35
2022-11-19T06:33:15.581Z,31.70
2022-11-19T06:35:42.474Z,30.17
2022-11-19T06:38:09.561Z,30.92
2022-11-19T06:40:36.548Z,27.48
2022-11-19T06:43:04.332Z,28.48
2022-11-19T06:45:31.315Z,26.60
2022-11-19T06:47:58.369Z,23.63
2022-11-19T06:50:25.456Z,26.90
2022-11-19T06:52:52.484Z,29.35
2022-11-19T06:55:19.564Z,32.10
2022-11-19T06:57:46.535Z,33.10
2022-11-19T07:00:14.408Z,29.05
2022-11-19T07:02:41.357Z,29.48
2022-11-19T07:05:08.622Z,33.35
2022-11-19T07:07:35.548Z,31.83
2022-11-19T07:10:02.537Z,28.50
2022-11-19T07:12:29.672Z,33.28
2022-11-19T07:15:01.127Z,30.42
2022-11-19T07:17:31.064Z,30.23
2022-11-19T07:19:57.993Z,28.98
2022-11-19T07:22:24.914Z,28.50
2022-11-19T07:24:51.785Z,28.52
2022-11-19T07:27:18.711Z,26.30
2022-11-19T07:29:45.640Z,29.48
2022-11-19T07:32:12.587Z,29.50
2022-11-19T07:34:39.603Z,26.88
2022-11-19T07:37:06.577Z,28.45
2022-11-19T07:39:33.528Z,27.52
2022-11-19T07:42:19.124Z,30.60
2022-11-19T07:44:54.957Z,27.50
2022-11-19T07:47:22.215Z,27.95
2022-11-19T07:49:49.093Z,27.63
2022-11-19T07:52:16.008Z,25.02
2022-11-19T07:54:42.883Z,21.58
2022-11-19T07:57:10.757Z,26.05
2022-11-19T07:59:37.628Z,27.45
2022-11-19T08:02:04.700Z,25.95
2022-11-19T08:04:31.813Z,24.25
2022-11-19T08:06:58.858Z,25.02
2022-11-19T08:09:25.853Z,22.67
2022-11-19T08:11:52.838Z,26.63
2022-11-19T08:14:19.740Z,26.70
2022-11-19T08:17:25.514Z,39.50
2022-11-19T08:19:52.477Z,26.85
2022-11-19T08:22:19.478Z,21.40
2022-11-19T08:24:46.545Z,27.05
2022-11-19T08:27:13.521Z,22.80
2022-11-19T08:29:50.337Z,20.70
2022-11-19T08:32:17.380Z,20.48
2022-11-19T08:34:44.400Z,19.55
2022-11-19T08:37:13.568Z,19.67
2022-11-19T08:39:40.672Z,19.08
2022-11-19T08:42:27.721Z,24.75
2022-11-19T08:44:55.823Z,19.60
2022-11-19T08:47:22.833Z,17.55
2022-11-19T08:49:49.775Z,21.70
2022-11-19T08:52:16.728Z,20.48
2022-11-19T08:54:43.624Z,21.83
2022-11-19T08:57:10.495Z,21.00
2022-11-19T08:59:37.580Z,19.90
2022-11-19T09:02:04.509Z,20.85
2022-11-19T09:04:31.544Z,18.02
2022-11-19T09:06:58.625Z,17.85
2022-11-19T09:09:25.598Z,18.83
2022-11-19T09:11:52.485Z,19.25
2022-11-19T09:14:19.806Z,20.35
2022-11-19T09:16:46.936Z,20.15
2022-11-19T09:19:13.814Z,18.63
2022-11-19T09:21:40.684Z,19.77
2022-11-19T09:24:07.804Z,19.25
2022-11-19T09:26:34.673Z,17.13
2022-11-19T09:29:01.665Z,18.58
2022-11-19T09:31:28.691Z,18.48
2022-11-19T09:33:55.821Z,15.38
2022-11-19T09:36:22.701Z,18.13
2022-11-19T09:38:49.691Z,17.90
2022-11-19T09:41:35.321Z,16.67
2022-11-19T09:44:37.755Z,15.40
2022-11-19T09:47:52.632Z,16.17
2022-11-19T09:50:23.920Z,16.10
2022-11-19T09:53:11.427Z,14.38
2022-11-19T09:55:44.089Z,14.70
2022-11-19T09:58:31.228Z,16.70
2022-11-19T10:00:59.762Z,14.02
2022-11-19T10:03:33.145Z,12.18
2022-11-19T10:06:26.035Z,16.02
2022-11-19T10:09:25.173Z,15.25
2022-11-19T10:12:06.594Z,13.73
2022-11-19T10:15:00.545Z,11.57
2022-11-19T10:17:57.232Z,15.38
2022-11-19T10:23:19.167Z,12.55
2022-11-19T10:25:49.898Z,13.95
2022-11-19T10:28:29.402Z,16.48
2022-11-19T10:31:21.781Z,15.27
2022-11-19T10:34:30.613Z,15.30
2022-11-19T10:37:08.021Z,14.27
2022-11-19T10:39:51.899Z,12.45
2022-11-19T10:42:40.394Z,15.68
2022-11-19T10:45:18.440Z,12.93
2022-11-19T10:47:58.143Z,13.32
2022-11-19T10:50:26.286Z,15.18
2022-11-19T10:53:18.009Z,12.20
2022-11-19T10:55:54.792Z,13.65
2022-11-19T10:58:38.243Z,11.65
2022-11-19T11:01:27.543Z,10.70
2022-11-19T11:04:21.910Z,13.07
2022-11-19T11:07:04.998Z,9.82
2022-11-19T11:09:43.710Z,11.75
2022-11-19T11:12:41.740Z,10.00
2022-11-19T11:15:24.594Z,9.60
2022-11-19T11:18:10.340Z,9.25
2022-11-19T11:20:40.158Z,10.40
2022-11-19T11:23:13.037Z,8.48
2022-11-19T11:25:40.445Z,10.38
2022-11-19T11:28:17.705Z,10.48
2022-11-19T11:30:56.811Z,12.43
2022-11-19T11:33:40.765Z,10.25
2022-11-19T11:36:11.647Z,11.48
2022-11-19T11:38:51.604Z,9.70
2022-11-19T11:44:14.694Z,10.57
2022-11-19T11:46:53.168Z,9.15
2022-11-19T11:49:29.237Z,8.93
2022-11-19T11:52:14.657Z,9.50
2022-11-19T11:54:57.288Z,7.50
2022-11-19T11:57:28.918Z,7.03
2022-11-19T11:59:56.915Z,9.40
2022-11-19T12:02:33.112Z,6.68
2022-11-19T12:05:10.780Z,7.65
2022-11-19T12:07:53.195Z,6.63
2022-11-19T12:10:49.369Z,5.93
2022-11-19T12:13:46.864Z,7.88
2022-11-19T12:16:26.592Z,7.43
2022-11-19T12:19:30.011Z,6.25
2022-11-19T12:22:28.002Z,6.63
2022-11-19T12:25:42.436Z,6.95
2022-11-19T12:28:33.141Z,7.28
2022-11-19T12:31:29.780Z,6.75
2022-11-19T12:34:34.055Z,8.10
2022-11-19T12:37:33.090Z,5.80
2022-11-19T12:40:50.497Z,5.95
2022-11-19T12:43:54.203Z,6.63
2022-11-19T12:46:37.848Z,9.38
2022-11-19T12:49:30.771Z,6.78
2022-11-19T12:52:28.469Z,3.92
2022-11-19T12:55:29.241Z,4.78
2022-11-19T12:58:14.222Z,5.07
2022-11-19T13:00:53.585Z,5.25
2022-11-19T13:03:29.851Z,6.75
2022-11-19T13:06:15.342Z,4.28
2022-11-19T13:08:59.786Z,5.95
2022-11-19T13:11:39.217Z,4.88
2022-11-19T13:14:42.755Z,4.00
2022-11-19T13:17:21.953Z,5.50
2022-11-19T13:19:56.310Z,5.13
2022-11-19T13:22:36.612Z,6.82
2022-11-19T13:25:17.330Z,8.15
2022-11-19T13:27:47.420Z,5.95
2022-11-19T13:30:28.386Z,7.50
2022-11-19T13:33:18.545Z,5.85
2022-11-19T13:36:12.076Z,10.75
2022-11-19T13:39:12.434Z,5.70
2022-11-19T13:42:13.570Z,7.50
2022-11-19T13:44:43.420Z,5.88
2022-11-19T13:47:24.028Z,5.32
2022-11-19T13:50:00.669Z,6.50
2022-11-19T13:53:03.838Z,23.38
2022-11-19T13:55:39.031Z,10.30
2022-11-19T13:58:19.053Z,4.82
2022-11-19T14:01:08.433Z,5.28
2022-11-19T14:04:22.300Z,6.00
2022-11-19T14:07:04.259Z,4.57
2022-11-19T14:10:18.528Z,5.60
2022-11-19T14:13:01.027Z,4.38
2022-11-19T14:16:01.814Z,5.20
2022-11-19T14:18:56.001Z,5.68
2022-11-19T14:21:44.370Z,6.57
2022-11-19T14:24:45.107Z,5.88
2022-11-19T14:27:34.028Z,5.80
2022-11-19T14:30:06.717Z,6.32
2022-11-19T14:32:48.178Z,7.55
2022-11-19T14:35:34.978Z,8.00
2022-11-19T14:38:29.958Z,8.73
2022-11-19T14:41:26.621Z,9.25
2022-11-19T14:46:45.821Z,7.72
2022-11-19T14:49:38.037Z,8.23
2022-11-19T14:52:23.112Z,9.45
2022-11-19T14:55:06.830Z,10.85
2022-11-19T14:57:39.006Z,9.73
2022-11-19T15:00:32.532Z,7.43
2022-11-19T15:03:02.060Z,8.07
2022-11-19T15:05:41.359Z,6.18
2022-11-19T15:08:17.196Z,8.40
2022-11-19T15:11:04.741Z,9.55
2022-11-19T15:13:37.710Z,10.52
2022-11-19T15:16:13.493Z,9.68
2022-11-19T15:21:37.693Z,6.80
2022-11-19T15:24:13.263Z,8.82
2022-11-19T15:27:10.669Z,8.43
2022-11-19T15:30:00.146Z,8.32
2022-11-19T15:33:08.055Z,14.48
2022-11-19T15:36:07.137Z,9.88
2022-11-19T15:38:42.502Z,10.40
2022-11-19T15:41:17.189Z,11.70
2022-11-19T15:43:51.718Z,8.27
2022-11-19T15:46:39.637Z,9.88
2022-11-19T15:49:22.682Z,10.75
2022-11-19T15:52:23.641Z,13.70
2022-11-19T15:54:50.530Z,10.27
2022-11-19T15:57:17.368Z,11.15
2022-11-19T15:59:49.729Z,9.77
2022-11-19T16:02:27.456Z,7.75
2022-11-19T16:04:55.115Z,11.27
2022-11-19T16:07:25.688Z,11.30
2022-11-19T16:09:53.136Z,9.45
2022-11-19T16:12:41.961Z,10.82
2022-11-19T16:15:42.386Z,13.18
2022-11-19T16:18:18.772Z,11.25
2022-11-19T16:20:51.689Z,10.77
2022-11-19T16:23:25.105Z,13.52
2022-11-19T16:25:52.810Z,13.63
2022-11-19T16:28:26.158Z,12.00
2022-11-19T16:31:00.035Z,10.25
2022-11-19T16:33:29.574Z,10.38
2022-11-19T16:36:18.572Z,9.02
2022-11-19T16:38:48.825Z,8.60
2022-11-19T16:41:37.497Z,7.97
2022-11-19T16:44:09.816Z,7.85
2022-11-19T16:46:37.430Z,8.80
2022-11-19T16:49:28.720Z,10.77
2022-11-19T16:51:56.710Z,7.65
2022-11-19T16:54:48.790Z,8.23
2022-11-19T16:57:20.360Z,12.40
2022-11-19T16:59:52.924Z,8.25
2022-11-19T17:02:22.872Z,10.45
2022-11-19T17:04:53.890Z,8.95
2022-11-19T17:07:26.171Z,9.25
2022-11-19T17:10:24.494Z,9.07
2022-11-19T17:13:03.955Z,8.15
2022-11-19T17:16:17.693Z,9.32
2022-11-19T17:18:45.148Z,9.60
2022-11-19T17:21:30.833Z,10.07
2022-11-19T17:23:58.238Z,5.53
2022-11-19T17:26:27.763Z,6.88
2022-11-19T17:29:09.014Z,8.82
2022-11-19T17:31:36.315Z,7.25
2022-11-19T17:34:21.759Z,6.35
2022-11-19T17:36:48.952Z,7.78
2022-11-19T17:39:16.481Z,10.73
2022-11-19T17:42:04.556Z,8.45
2022-11-19T17:44:34.799Z,5.82
2022-11-19T17:47:22.351Z,9.48
2022-11-19T17:49:51.029Z,6.30
2022-11-19T17:52:29.399Z,9.20
2022-11-19T17:55:02.650Z,6.38
2022-11-19T17:57:29.746Z,7.50
2022-11-19T17:59:56.635Z,9.13
2022-11-19T18:02:23.593Z,8.73
2022-11-19T18:04:50.953Z,6.75
2022-11-19T18:07:19.098Z,8.85
2022-11-19T18:09:46.155Z,8.45
2022-11-19T18:12:18.188Z,6.80
2022-11-19T18:14:46.937Z,8.75
2022-11-19T18:17:15.824Z,8.23
2022-11-19T18:19:43.074Z,8.13
2022-11-19T18:22:18.257Z,10.15
2022-11-19T18:24:50.267Z,7.88
2022-11-19T18:27:17.798Z,7.78
2022-11-19T18:29:45.116Z,9.13
2022-11-19T18:32:16.053Z,6.40
2022-11-19T18:34:44.683Z,9.18
2022-11-19T18:37:12.022Z,6.57
2022-11-19T18:39:39.079Z,9.18
2022-11-19T18:42:05.954Z,6.40
2022-11-19T18:44:35.635Z,7.75
2022-11-19T18:47:06.876Z,8.60
2022-11-19T18:49:35.026Z,9.02
2022-11-19T18:52:08.650Z,10.35
2022-11-19T18:54:35.627Z,11.85
2022-11-19T18:57:02.965Z,10.93
2022-11-19T18:59:30.171Z,9.32
2022-11-19T19:01:57.267Z,9.70
2022-11-19T19:04:24.501Z,9.40
2022-11-19T19:06:51.626Z,8.73
2022-11-19T19:09:21.955Z,10.13
2022-11-19T19:12:13.426Z,9.95
2022-11-19T19:14:42.398Z,16.52
2022-11-19T19:17:10.616Z,11.68
2022-11-19T19:19:38.508Z,14.52
2022-11-19T19:22:06.154Z,12.52
2022-11-19T19:24:33.330Z,10.88
2022-11-19T19:27:01.623Z,11.15
2022-11-19T19:29:28.773Z,10.18
2022-11-19T19:31:55.762Z,7.78
2022-11-19T19:34:22.707Z,7.95
2022-11-19T19:36:53.238Z,11.60
2022-11-19T19:39:21.215Z,7.95
2022-11-19T19:41:49.142Z,8.85
2022-11-19T19:44:16.440Z,11.88
2022-11-19T19:46:43.385Z,12.27
2022-11-19T19:49:10.271Z,14.07
2022-11-19T19:51:37.308Z,9.38
2022-11-19T19:54:04.537Z,14.52
2022-11-19T19:56:32.875Z,10.43
2022-11-19T19:59:00.980Z,10.98
2022-11-19T20:01:33.897Z,11.88
2022-11-19T20:04:04.785Z,14.85
2022-11-19T20:06:32.961Z,14.02
2022-11-19T20:09:08.239Z,14.68
2022-11-19T20:11:36.745Z,13.70
2022-11-19T20:14:04.489Z,10.98
2022-11-19T20:16:33.506Z,11.55
2022-11-19T20:19:01.443Z,11.45
2022-11-19T20:21:31.735Z,10.20
2022-11-19T20:23:58.799Z,11.95
2022-11-19T20:26:29.217Z,12.98
2022-11-19T20:28:59.540Z,11.88
2022-11-19T20:31:28.246Z,12.23
2022-11-19T20:33:59.551Z,10.98
2022-11-19T20:36:29.806Z,12.15
2022-11-19T20:38:59.940Z,14.18
2022-11-19T20:41:47.129Z,13.45
2022-11-19T20:44:22.752Z,10.70
2022-11-19T20:49:26.964Z,11.00
2022-11-19T20:51:54.835Z,12.95
2022-11-19T20:54:23.420Z,15.07
2022-11-19T20:56:52.531Z,15.23
2022-11-19T20:59:20.453Z,15.77
2022-11-19T21:01:49.594Z,13.68
2022-11-19T21:04:17.413Z,14.50
2022-11-19T21:06:44.768Z,12.32
2022-11-19T21:09:11.821Z,12.18
2022-11-19T21:11:38.891Z,12.20
2022-11-19T21:14:06.791Z,11.63
2022-11-19T21:16:33.848Z,11.60
2022-11-19T21:19:01.137Z,10.10
2022-11-19T21:21:28.392Z,13.80
2022-11-19T21:23:55.831Z,14.23
2022-11-19T21:26:26.400Z,14.25
2022-11-19T21:28:56.833Z,15.35
2022-11-19T21:31:38.872Z,15.63
2022-11-19T21:34:12.440Z,13.95
2022-11-19T21:36:41.780Z,18.55
2022-11-19T21:39:10.084Z,14.35
2022-11-19T21:41:37.418Z,14.10
2022-11-19T21:44:05.509Z,16.20
2022-11-19T21:46:33.411Z,11.50
2022-11-19T21:49:00.626Z,13.43
2022-11-19T21:51:27.688Z,12.00
2022-11-19T21:53:56.681Z,14.95
2022-11-19T21:56:24.477Z,13.20
2022-11-19T21:58:51.765Z,13.63
2022-11-19T22:01:18.902Z,12.45
2022-11-19T22:03:46.069Z,15.05
2022-11-19T22:06:13.183Z,10.85
2022-11-19T22:08:41.509Z,13.38
2022-11-19T22:11:28.685Z,12.75
2022-11-19T22:14:02.233Z,20.33
2022-11-19T22:16:32.194Z,14.25
2022-11-19T22:18:59.314Z,14.27
2022-11-19T22:21:27.264Z,11.07
2022-11-19T22:23:54.199Z,12.75
2022-11-19T22:26:21.559Z,18.15
2022-11-19T22:28:48.552Z,15.38
2022-11-19T22:31:15.765Z,14.27
2022-11-19T22:33:42.744Z,13.05
2022-11-19T22:36:11.848Z,14.07
2022-11-19T22:38:39.517Z,12.40
2022-11-19T22:41:14.897Z,15.15
2022-11-19T22:43:43.083Z,13.60
2022-11-19T22:46:11.715Z,14.20
2022-11-19T22:48:39.336Z,16.38
2022-11-19T22:51:16.895Z,15.57
2022-11-19T22:53:44.327Z,13.90
2022-11-19T22:56:15.200Z,15.32
2022-11-19T22:58:42.989Z,13.27
2022-11-19T23:01:19.521Z,14.20
2022-11-19T23:03:47.149Z,21.95
2022-11-19T23:06:14.910Z,10.55
2022-11-19T23:08:42.877Z,11.75
2022-11-19T23:11:09.846Z,11.95
2022-11-19T23:13:42.875Z,15.20
2022-11-19T23:16:15.781Z,11.85
2022-11-19T23:18:52.007Z,12.90
2022-11-19T23:21:28.280Z,13.13
2022-11-19T23:23:56.325Z,17.35
2022-11-19T23:26:25.780Z,14.38
2022-11-19T23:28:53.845Z,12.85
2022-11-19T23:31:26.932Z,13.88
2022-11-19T23:33:58.799Z,9.90
2022-11-19T23:36:33.139Z,13.73
2022-11-19T23:39:00.634Z,13.30
2022-11-19T23:41:28.441Z,13.93
2022-11-19T23:43:56.185Z,11.45
2022-11-19T23:46:32.765Z,11.00
2022-11-19T23:49:01.009Z,12.15
2022-11-19T23:51:38.709Z,11.60
2022-11-19T23:54:06.296Z,10.27
2022-11-19T23:56:36.371Z,13.55
2022-11-19T23:59:05.382Z,12.23
